createdAt,value
2018-07-11T01:32:30.503Z,1015.98
2018-07-11T01:32:31.078Z,1016.01
2018-07-11T01:32:31.676Z,1016.01
2018-07-11T01:32:32.274Z,1015.99
2018-07-11T01:32:32.875Z,1015.99
2018-07-11T01:32:33.479Z,1016.03
2018-07-11T01:32:34.075Z,1016.02
2018-07-11T01:32:34.674Z,1016.03
2018-07-11T01:33:29.179Z,1016.03
2018-07-11T01:33:29.751Z,1016.02
2018-07-11T01:33:30.351Z,1016.02
2018-07-11T01:33:30.952Z,1016.02
2018-07-11T01:33:31.551Z,1016.04
2018-07-11T01:33:32.150Z,1016.02
2018-07-11T01:33:32.751Z,1016.03
2018-07-11T01:33:33.353Z,1016.01
2018-07-11T01:34:27.855Z,1016.01
2018-07-11T01:34:28.427Z,1016.02
2018-07-11T01:34:29.028Z,1016.06
2018-07-11T01:34:29.629Z,1016.03
2018-07-11T01:34:30.230Z,1016.03
2018-07-11T01:34:30.830Z,1016.04
2018-07-11T01:34:31.427Z,1016.03
2018-07-11T01:34:32.026Z,1016.04
2018-07-11T01:35:25.507Z,1016.07
2018-07-11T01:35:26.083Z,1016.03
2018-07-11T01:35:26.681Z,1016.06
2018-07-11T01:35:27.282Z,1016.03
2018-07-11T01:35:27.880Z,1016.04
2018-07-11T01:35:28.481Z,1016.07
2018-07-11T01:35:29.080Z,1016.04
2018-07-11T01:35:29.680Z,1016.03
2018-07-11T01:36:23.171Z,1016.07
2018-07-11T01:36:23.732Z,1016.04
2018-07-11T01:36:24.334Z,1016.04
2018-07-11T01:36:24.932Z,1016.07
2018-07-11T01:36:25.530Z,1016.09
2018-07-11T01:36:26.131Z,1016.02
2018-07-11T01:36:26.731Z,1016.07
2018-07-11T01:36:27.330Z,1016.02
2018-07-11T01:37:21.839Z,1016.08
2018-07-11T01:37:22.408Z,1016.06
2018-07-11T01:37:23.008Z,1016.08
2018-07-11T01:37:23.607Z,1016.06
2018-07-11T01:37:24.208Z,1016.07
2018-07-11T01:37:24.809Z,1016.06
2018-07-11T01:37:25.407Z,1016.04
2018-07-11T01:37:26.008Z,1016.06
2018-07-11T01:38:19.489Z,1016.07
2018-07-11T01:38:20.062Z,1016.04
2018-07-11T01:38:20.665Z,1016.03
2018-07-11T01:38:21.262Z,1016.05
2018-07-11T01:38:21.861Z,1016.10
2018-07-11T01:38:22.464Z,1016.08
2018-07-11T01:38:23.061Z,1016.03
2018-07-11T01:38:23.660Z,1016.05
2018-07-11T01:39:17.140Z,1016.07
2018-07-11T01:39:17.713Z,1016.08
2018-07-11T01:39:18.313Z,1016.07
2018-07-11T01:39:18.913Z,1016.07
2018-07-11T01:39:19.512Z,1016.06
2018-07-11T01:39:20.113Z,1016.05
2018-07-11T01:39:20.713Z,1016.07
2018-07-11T01:39:21.312Z,1016.05
2018-07-11T01:40:15.816Z,1016.09
2018-07-11T01:40:16.391Z,1016.06
2018-07-11T01:40:16.989Z,1016.08
2018-07-11T01:40:17.587Z,1016.08
2018-07-11T01:40:18.188Z,1016.08
2018-07-11T01:40:18.793Z,1016.04
2018-07-11T01:40:19.387Z,1016.11
2018-07-11T01:40:19.987Z,1016.08
2018-07-11T01:41:13.558Z,1016.08
2018-07-11T01:41:14.060Z,1016.06
2018-07-11T01:41:14.660Z,1016.08
2018-07-11T01:41:15.261Z,1016.05
2018-07-11T01:41:15.860Z,1016.07
2018-07-11T01:41:16.460Z,1016.06
2018-07-11T01:41:17.061Z,1016.07
2018-07-11T01:41:17.660Z,1016.06
2018-07-11T01:42:12.145Z,1016.07
2018-07-11T01:42:12.716Z,1016.07
2018-07-11T01:42:13.315Z,1016.04
2018-07-11T01:42:13.916Z,1016.08
2018-07-11T01:42:14.515Z,1016.07
2018-07-11T01:42:15.115Z,1016.10
2018-07-11T01:42:15.718Z,1016.06
2018-07-11T01:42:16.313Z,1016.06
2018-07-11T01:43:10.819Z,1016.11
2018-07-11T01:43:11.392Z,1016.08
2018-07-11T01:43:11.991Z,1016.07
2018-07-11T01:43:12.591Z,1016.10
2018-07-11T01:43:13.191Z,1016.07
2018-07-11T01:43:13.795Z,1016.06
2018-07-11T01:43:14.393Z,1016.03
2018-07-11T01:43:14.990Z,1016.05
2018-07-11T01:44:08.471Z,1016.05
2018-07-11T01:44:09.044Z,1016.09
2018-07-11T01:44:09.644Z,1016.10
2018-07-11T01:44:10.245Z,1016.08
2018-07-11T01:44:10.844Z,1016.09
2018-07-11T01:44:11.444Z,1016.08
2018-07-11T01:44:12.045Z,1016.10
2018-07-11T01:44:12.644Z,1016.11
2018-07-11T01:45:07.149Z,1016.10
2018-07-11T01:45:07.720Z,1016.12
2018-07-11T01:45:08.319Z,1016.10
2018-07-11T01:45:08.919Z,1016.06
2018-07-11T01:45:09.522Z,1016.07
2018-07-11T01:45:10.119Z,1016.10
2018-07-11T01:45:10.718Z,1016.11
2018-07-11T01:45:11.322Z,1016.04
2018-07-11T01:46:05.827Z,1016.16
2018-07-11T01:46:06.397Z,1016.12
2018-07-11T01:46:06.995Z,1016.13
2018-07-11T01:46:07.596Z,1016.12
2018-07-11T01:46:08.195Z,1016.11
2018-07-11T01:46:08.794Z,1016.12
2018-07-11T01:46:09.394Z,1016.14
2018-07-11T01:46:09.994Z,1016.11
2018-07-11T01:47:04.501Z,1016.16
2018-07-11T01:47:05.072Z,1016.16
2018-07-11T01:47:05.672Z,1016.14
2018-07-11T01:47:06.271Z,1016.15
2018-07-11T01:47:06.870Z,1016.13
2018-07-11T01:47:07.470Z,1016.13
2018-07-11T01:47:08.077Z,1016.16
2018-07-11T01:47:08.670Z,1016.16
2018-07-11T01:48:02.152Z,1016.15
2018-07-11T01:48:02.723Z,1016.12
2018-07-11T01:48:03.323Z,1016.16
2018-07-11T01:48:03.924Z,1016.19
2018-07-11T01:48:04.527Z,1016.17
2018-07-11T01:48:05.123Z,1016.17
2018-07-11T01:48:05.723Z,1016.16
2018-07-11T01:48:06.323Z,1016.18
2018-07-11T01:49:00.828Z,1016.15
2018-07-11T01:49:01.403Z,1016.14
2018-07-11T01:49:01.999Z,1016.15
2018-07-11T01:49:02.599Z,1016.16
2018-07-11T01:49:03.198Z,1016.12
2018-07-11T01:49:03.799Z,1016.14
2018-07-11T01:49:04.398Z,1016.14
2018-07-11T01:49:04.997Z,1016.12
2018-07-11T01:49:59.503Z,1016.14
2018-07-11T01:50:00.075Z,1016.11
2018-07-11T01:50:00.676Z,1016.14
2018-07-11T01:50:01.275Z,1016.13
2018-07-11T01:50:01.876Z,1016.13
2018-07-11T01:50:02.474Z,1016.11
2018-07-11T01:50:03.073Z,1016.14
2018-07-11T01:50:03.675Z,1016.14
2018-07-11T01:50:58.179Z,1016.05
2018-07-11T01:50:58.755Z,1016.07
2018-07-11T01:50:59.350Z,1016.05
2018-07-11T01:50:59.952Z,1016.08
2018-07-11T01:51:00.550Z,1016.07
2018-07-11T01:51:01.164Z,1016.09
2018-07-11T01:51:01.755Z,1016.09
2018-07-11T01:51:02.355Z,1016.11
2018-07-11T01:51:55.829Z,1016.02
2018-07-11T01:51:56.403Z,1016.07
2018-07-11T01:51:57.002Z,1016.03
2018-07-11T01:51:57.602Z,1016.07
2018-07-11T01:51:58.208Z,1016.05
2018-07-11T01:51:58.804Z,1016.05
2018-07-11T01:51:59.404Z,1016.05
2018-07-11T01:52:00.001Z,1016.06
2018-07-11T01:52:54.505Z,1016.04
2018-07-11T01:52:55.077Z,1016.02
2018-07-11T01:52:55.678Z,1016.00
2018-07-11T01:52:56.281Z,1016.03
2018-07-11T01:52:56.878Z,1016.00
2018-07-11T01:52:57.476Z,1016.00
2018-07-11T01:52:58.079Z,1016.03
2018-07-11T01:52:58.677Z,1016.04
2018-07-11T01:53:53.182Z,1016.02
2018-07-11T01:53:53.756Z,1016.01
2018-07-11T01:53:54.353Z,1015.98
2018-07-11T01:53:54.953Z,1015.98
2018-07-11T01:53:55.557Z,1016.02
2018-07-11T01:53:56.154Z,1016.00
2018-07-11T01:53:56.754Z,1015.96
2018-07-11T01:53:57.353Z,1016.02
2018-07-11T01:54:51.857Z,1016.00
2018-07-11T01:54:52.429Z,1016.02
2018-07-11T01:54:53.028Z,1016.01
2018-07-11T01:54:53.631Z,1016.05
2018-07-11T01:54:54.235Z,1016.01
2018-07-11T01:54:54.827Z,1016.03
2018-07-11T01:54:55.429Z,1016.00
2018-07-11T01:54:56.029Z,1015.99
2018-07-11T01:55:49.510Z,1016.01
2018-07-11T01:55:50.082Z,1015.97
2018-07-11T01:55:50.681Z,1016.01
2018-07-11T01:55:51.284Z,1015.99
2018-07-11T01:55:51.880Z,1016.00
2018-07-11T01:55:52.482Z,1016.01
2018-07-11T01:55:53.081Z,1015.99
2018-07-11T01:55:53.681Z,1015.97
2018-07-11T01:56:48.253Z,1016.00
2018-07-11T01:56:48.756Z,1016.02
2018-07-11T01:56:49.360Z,1016.00
2018-07-11T01:56:49.955Z,1016.02
2018-07-11T01:56:50.555Z,1016.06
2018-07-11T01:56:51.155Z,1016.04
2018-07-11T01:56:51.754Z,1016.03
2018-07-11T01:56:52.355Z,1016.02
2018-07-11T01:57:45.838Z,1016.03
2018-07-11T01:57:46.409Z,1016.03
2018-07-11T01:57:47.010Z,1016.01
2018-07-11T01:57:47.609Z,1016.05
2018-07-11T01:57:48.219Z,1016.02
2018-07-11T01:57:48.809Z,1016.03
2018-07-11T01:57:49.409Z,1016.05
2018-07-11T01:57:50.009Z,1016.04
2018-07-11T01:58:44.512Z,1016.04
2018-07-11T01:58:45.086Z,1016.09
2018-07-11T01:58:45.684Z,1016.05
2018-07-11T01:58:46.284Z,1016.02
2018-07-11T01:58:46.887Z,1016.04
2018-07-11T01:58:47.482Z,1016.07
2018-07-11T01:58:48.082Z,1016.06
2018-07-11T01:58:48.681Z,1016.07
2018-07-11T01:59:42.167Z,1016.08
2018-07-11T01:59:42.737Z,1016.10
2018-07-11T01:59:43.337Z,1016.09
2018-07-11T01:59:43.935Z,1016.10
2018-07-11T01:59:44.538Z,1016.11
2018-07-11T01:59:45.136Z,1016.11
2018-07-11T01:59:45.737Z,1016.07
2018-07-11T01:59:46.341Z,1016.09
2018-07-11T02:00:39.817Z,1016.10
2018-07-11T02:00:40.388Z,1016.08
2018-07-11T02:00:40.988Z,1016.11
2018-07-11T02:00:41.589Z,1016.08
2018-07-11T02:00:42.188Z,1016.12
2018-07-11T02:00:42.788Z,1016.10
2018-07-11T02:00:43.390Z,1016.12
2018-07-11T02:00:43.989Z,1016.07
2018-07-11T02:01:37.468Z,1016.12
2018-07-11T02:01:38.043Z,1016.10
2018-07-11T02:01:38.640Z,1016.10
2018-07-11T02:01:39.240Z,1016.09
2018-07-11T02:01:39.883Z,1016.10
2018-07-11T02:01:40.441Z,1016.10
2018-07-11T02:01:41.040Z,1016.10
2018-07-11T02:01:41.638Z,1016.06
2018-07-11T02:02:35.120Z,1016.08
2018-07-11T02:02:35.692Z,1016.05
2018-07-11T02:02:36.292Z,1016.13
2018-07-11T02:02:36.893Z,1016.09
2018-07-11T02:02:37.491Z,1016.11
2018-07-11T02:02:38.092Z,1016.08
2018-07-11T02:02:38.693Z,1016.10
2018-07-11T02:02:39.291Z,1016.08
2018-07-11T02:03:33.796Z,1016.03
2018-07-11T02:03:34.367Z,1016.07
2018-07-11T02:03:34.967Z,1016.06
2018-07-11T02:03:35.566Z,1016.08
2018-07-11T02:03:36.166Z,1016.10
2018-07-11T02:03:36.770Z,1016.09
2018-07-11T02:03:37.367Z,1016.07
2018-07-11T02:03:37.967Z,1016.07
2018-07-11T02:04:32.470Z,1016.07
2018-07-11T02:04:33.043Z,1016.06
2018-07-11T02:04:33.643Z,1016.06
2018-07-11T02:04:34.242Z,1016.06
2018-07-11T02:04:34.842Z,1016.06
2018-07-11T02:04:35.442Z,1016.04
2018-07-11T02:04:36.043Z,1016.06
2018-07-11T02:04:36.642Z,1016.08
2018-07-11T02:05:30.124Z,1016.03
2018-07-11T02:05:30.695Z,1016.05
2018-07-11T02:05:31.295Z,1016.04
2018-07-11T02:05:31.894Z,1016.05
2018-07-11T02:05:32.495Z,1016.01
2018-07-11T02:05:33.093Z,1016.08
2018-07-11T02:05:33.693Z,1016.07
2018-07-11T02:05:34.294Z,1016.04
2018-07-11T02:06:28.798Z,1016.03
2018-07-11T02:06:29.370Z,1016.03
2018-07-11T02:06:29.970Z,1016.06
2018-07-11T02:06:30.571Z,1016.04
2018-07-11T02:06:31.169Z,1016.03
2018-07-11T02:06:31.771Z,1016.05
2018-07-11T02:06:32.370Z,1016.05
2018-07-11T02:06:32.969Z,1016.06
2018-07-11T02:07:27.474Z,1016.05
2018-07-11T02:07:28.046Z,1016.03
2018-07-11T02:07:28.650Z,1016.01
2018-07-11T02:07:29.247Z,1016.01
2018-07-11T02:07:29.847Z,1016.02
2018-07-11T02:07:30.447Z,1016.05
2018-07-11T02:07:31.045Z,1016.04
2018-07-11T02:07:31.645Z,1016.01
2018-07-11T02:08:26.149Z,1016.03
2018-07-11T02:08:26.721Z,1016.02
2018-07-11T02:08:27.322Z,1016.03
2018-07-11T02:08:27.922Z,1016.05
2018-07-11T02:08:28.520Z,1016.05
2018-07-11T02:08:29.121Z,1016.03
2018-07-11T02:08:29.720Z,1016.00
2018-07-11T02:08:30.326Z,1016.05
2018-07-11T02:09:23.801Z,1016.03
2018-07-11T02:09:24.374Z,1016.02
2018-07-11T02:09:24.977Z,1016.04
2018-07-11T02:09:25.574Z,1016.05
2018-07-11T02:09:26.174Z,1016.07
2018-07-11T02:09:26.773Z,1016.01
2018-07-11T02:09:27.374Z,1016.03
2018-07-11T02:09:27.973Z,1016.04
2018-07-11T02:10:22.476Z,1016.04
2018-07-11T02:10:23.048Z,1016.02
2018-07-11T02:10:23.649Z,1016.05
2018-07-11T02:10:24.249Z,1016.05
2018-07-11T02:10:24.849Z,1016.04
2018-07-11T02:10:25.448Z,1016.00
2018-07-11T02:10:26.051Z,1016.06
2018-07-11T02:10:26.650Z,1016.05
2018-07-11T02:11:20.130Z,1016.03
2018-07-11T02:11:20.701Z,1016.02
2018-07-11T02:11:21.301Z,1016.04
2018-07-11T02:11:21.901Z,1016.00
2018-07-11T02:11:22.501Z,1016.03
2018-07-11T02:11:23.102Z,1015.99
2018-07-11T02:11:23.703Z,1015.99
2018-07-11T02:11:24.300Z,1016.03
2018-07-11T02:12:17.781Z,1016.03
2018-07-11T02:12:18.353Z,1016.02
2018-07-11T02:12:18.953Z,1015.99
2018-07-11T02:12:19.556Z,1016.04
2018-07-11T02:12:20.154Z,1016.00
2018-07-11T02:12:20.751Z,1016.03
2018-07-11T02:12:21.351Z,1016.01
2018-07-11T02:12:21.950Z,1016.04
2018-07-11T02:13:16.456Z,1016.02
2018-07-11T02:13:17.027Z,1016.05
2018-07-11T02:13:17.628Z,1016.01
2018-07-11T02:13:18.228Z,1016.02
2018-07-11T02:13:18.827Z,1016.03
2018-07-11T02:13:19.427Z,1016.04
2018-07-11T02:13:20.027Z,1016.07
2018-07-11T02:13:20.627Z,1016.07
2018-07-11T02:14:15.132Z,1016.10
2018-07-11T02:14:15.705Z,1016.09
2018-07-11T02:14:16.305Z,1016.06
2018-07-11T02:14:16.903Z,1016.05
2018-07-11T02:14:17.504Z,1016.06
2018-07-11T02:14:18.104Z,1016.05
2018-07-11T02:14:18.704Z,1016.07
2018-07-11T02:14:19.303Z,1016.09
2018-07-11T02:15:13.808Z,1016.11
2018-07-11T02:15:14.380Z,1016.06
2018-07-11T02:15:14.980Z,1016.07
2018-07-11T02:15:15.580Z,1016.10
2018-07-11T02:15:16.180Z,1016.12
2018-07-11T02:15:16.779Z,1016.10
2018-07-11T02:15:17.379Z,1016.08
2018-07-11T02:15:17.982Z,1016.10
2018-07-11T02:16:12.483Z,1016.09
2018-07-11T02:16:13.056Z,1016.12
2018-07-11T02:16:13.655Z,1016.11
2018-07-11T02:16:14.255Z,1016.15
2018-07-11T02:16:14.854Z,1016.12
2018-07-11T02:16:15.454Z,1016.10
2018-07-11T02:16:16.054Z,1016.10
2018-07-11T02:16:16.655Z,1016.14
2018-07-11T02:17:11.163Z,1016.14
2018-07-11T02:17:11.731Z,1016.10
2018-07-11T02:17:12.331Z,1016.10
2018-07-11T02:17:12.932Z,1016.10
2018-07-11T02:17:13.531Z,1016.06
2018-07-11T02:17:14.131Z,1016.10
2018-07-11T02:17:14.730Z,1016.09
2018-07-11T02:17:15.331Z,1016.08
2018-07-11T02:18:08.813Z,1016.08
2018-07-11T02:18:09.383Z,1016.09
2018-07-11T02:18:09.984Z,1016.06
2018-07-11T02:18:10.582Z,1016.05
2018-07-11T02:18:11.183Z,1016.09
2018-07-11T02:18:11.782Z,1016.11
2018-07-11T02:18:12.383Z,1016.09
2018-07-11T02:18:12.982Z,1016.07
2018-07-11T02:19:07.486Z,1016.01
2018-07-11T02:19:08.058Z,1015.99
2018-07-11T02:19:08.659Z,1016.04
2018-07-11T02:19:09.258Z,1016.00
2018-07-11T02:19:09.859Z,1016.05
2018-07-11T02:19:10.460Z,1016.01
2018-07-11T02:19:11.057Z,1016.03
2018-07-11T02:19:11.657Z,1016.03
2018-07-11T02:20:06.162Z,1016.02
2018-07-11T02:20:06.734Z,1016.01
2018-07-11T02:20:07.334Z,1015.99
2018-07-11T02:20:07.935Z,1015.98
2018-07-11T02:20:08.534Z,1016.00
2018-07-11T02:20:09.133Z,1015.97
2018-07-11T02:20:09.733Z,1016.00
2018-07-11T02:20:10.333Z,1015.99
2018-07-11T02:21:04.837Z,1016.02
2018-07-11T02:21:05.411Z,1015.99
2018-07-11T02:21:06.011Z,1015.99
2018-07-11T02:21:06.610Z,1015.99
2018-07-11T02:21:07.211Z,1015.99
2018-07-11T02:21:07.812Z,1016.01
2018-07-11T02:21:08.409Z,1015.98
2018-07-11T02:21:09.009Z,1016.00
2018-07-11T02:22:03.514Z,1016.03
2018-07-11T02:22:04.084Z,1016.01
2018-07-11T02:22:04.686Z,1015.99
2018-07-11T02:22:05.285Z,1016.03
2018-07-11T02:22:05.885Z,1015.98
2018-07-11T02:22:06.485Z,1016.01
2018-07-11T02:22:07.085Z,1016.02
2018-07-11T02:22:07.684Z,1015.99
2018-07-11T02:23:02.190Z,1016.01
2018-07-11T02:23:02.762Z,1016.03
2018-07-11T02:23:03.362Z,1016.02
2018-07-11T02:23:03.960Z,1016.02
2018-07-11T02:23:04.561Z,1016.01
2018-07-11T02:23:05.160Z,1016.01
2018-07-11T02:23:05.763Z,1015.98
2018-07-11T02:23:06.361Z,1016.00
2018-07-11T02:23:59.842Z,1015.99
2018-07-11T02:24:00.414Z,1016.01
2018-07-11T02:24:01.013Z,1015.99
2018-07-11T02:24:01.615Z,1016.00
2018-07-11T02:24:02.213Z,1016.02
2018-07-11T02:24:02.814Z,1016.04
2018-07-11T02:24:03.413Z,1016.02
2018-07-11T02:24:04.013Z,1016.01
2018-07-11T02:24:57.494Z,1015.98
2018-07-11T02:24:58.065Z,1015.98
2018-07-11T02:24:58.666Z,1015.93
2018-07-11T02:24:59.267Z,1015.94
2018-07-11T02:24:59.866Z,1015.95
2018-07-11T02:25:00.467Z,1015.98
2018-07-11T02:25:01.065Z,1015.99
2018-07-11T02:25:01.665Z,1015.97
2018-07-11T02:25:56.168Z,1015.96
2018-07-11T02:25:56.742Z,1015.94
2018-07-11T02:25:57.340Z,1015.92
2018-07-11T02:25:57.941Z,1015.93
2018-07-11T02:25:58.541Z,1015.93
2018-07-11T02:25:59.140Z,1015.94
2018-07-11T02:25:59.740Z,1015.93
2018-07-11T02:26:00.344Z,1015.96
2018-07-11T02:26:54.845Z,1015.94
2018-07-11T02:26:55.415Z,1015.93
2018-07-11T02:26:56.017Z,1015.91
2018-07-11T02:26:56.619Z,1015.94
2018-07-11T02:26:57.216Z,1015.94
2018-07-11T02:26:57.816Z,1015.95
2018-07-11T02:26:58.417Z,1015.96
2018-07-11T02:26:59.015Z,1015.95
2018-07-11T02:27:53.519Z,1015.94
2018-07-11T02:27:54.093Z,1015.95
2018-07-11T02:27:54.699Z,1015.94
2018-07-11T02:27:55.291Z,1015.92
2018-07-11T02:27:55.892Z,1015.93
2018-07-11T02:27:56.492Z,1015.95
2018-07-11T02:27:57.091Z,1015.93
2018-07-11T02:27:57.693Z,1015.93
2018-07-11T02:28:51.174Z,1015.91
2018-07-11T02:28:51.744Z,1015.88
2018-07-11T02:28:52.345Z,1015.93
2018-07-11T02:28:52.944Z,1015.88
2018-07-11T02:28:53.544Z,1015.93
2018-07-11T02:28:54.143Z,1015.91
2018-07-11T02:28:54.743Z,1015.91
2018-07-11T02:28:55.345Z,1015.89
2018-07-11T02:29:48.825Z,1015.91
2018-07-11T02:29:49.396Z,1015.87
2018-07-11T02:29:49.997Z,1015.89
2018-07-11T02:29:50.597Z,1015.91
2018-07-11T02:29:51.196Z,1015.89
2018-07-11T02:29:51.796Z,1015.91
2018-07-11T02:29:52.396Z,1015.92
2018-07-11T02:29:52.996Z,1015.90
2018-07-11T02:30:47.501Z,1015.90
2018-07-11T02:30:48.074Z,1015.89
2018-07-11T02:30:48.674Z,1015.87
2018-07-11T02:30:49.272Z,1015.87
2018-07-11T02:30:49.876Z,1015.91
2018-07-11T02:30:50.476Z,1015.86
2018-07-11T02:30:51.069Z,1015.87
2018-07-11T02:30:51.669Z,1015.86
2018-07-11T02:31:45.153Z,1015.88
2018-07-11T02:31:45.724Z,1015.86
2018-07-11T02:31:46.337Z,1015.86
2018-07-11T02:31:46.924Z,1015.83
2018-07-11T02:31:47.526Z,1015.89
2018-07-11T02:31:48.126Z,1015.88
2018-07-11T02:31:48.727Z,1015.88
2018-07-11T02:31:49.324Z,1015.86
2018-07-11T02:32:42.804Z,1015.87
2018-07-11T02:32:43.379Z,1015.89
2018-07-11T02:32:43.987Z,1015.84
2018-07-11T02:32:44.575Z,1015.83
2018-07-11T02:32:45.176Z,1015.88
2018-07-11T02:32:45.774Z,1015.85
2018-07-11T02:32:46.374Z,1015.87
2018-07-11T02:32:46.973Z,1015.88
2018-07-11T02:33:40.455Z,1015.86
2018-07-11T02:33:41.028Z,1015.82
2018-07-11T02:33:41.628Z,1015.87
2018-07-11T02:33:42.227Z,1015.88
2018-07-11T02:33:42.826Z,1015.86
2018-07-11T02:33:43.426Z,1015.86
2018-07-11T02:33:44.026Z,1015.85
2018-07-11T02:33:44.628Z,1015.86
2018-07-11T02:34:39.133Z,1015.81
2018-07-11T02:34:39.702Z,1015.84
2018-07-11T02:34:40.301Z,1015.84
2018-07-11T02:34:40.902Z,1015.85
2018-07-11T02:34:41.502Z,1015.85
2018-07-11T02:34:42.101Z,1015.84
2018-07-11T02:34:42.703Z,1015.85
2018-07-11T02:34:43.302Z,1015.87
2018-07-11T02:35:36.783Z,1015.84
2018-07-11T02:35:37.355Z,1015.85
2018-07-11T02:35:37.956Z,1015.86
2018-07-11T02:35:38.571Z,1015.82
2018-07-11T02:35:39.155Z,1015.83
2018-07-11T02:35:39.756Z,1015.78
2018-07-11T02:35:40.355Z,1015.85
2018-07-11T02:35:40.956Z,1015.86
2018-07-11T02:36:34.525Z,1015.83
2018-07-11T02:36:35.030Z,1015.87
2018-07-11T02:36:35.628Z,1015.87
2018-07-11T02:36:36.229Z,1015.83
2018-07-11T02:36:36.830Z,1015.84
2018-07-11T02:36:37.430Z,1015.83
2018-07-11T02:36:38.028Z,1015.84
2018-07-11T02:36:38.629Z,1015.84
2018-07-11T02:37:32.189Z,1015.82
2018-07-11T02:37:32.761Z,1015.82
2018-07-11T02:37:33.362Z,1015.80
2018-07-11T02:37:33.964Z,1015.82
2018-07-11T02:37:34.563Z,1015.80
2018-07-11T02:37:35.163Z,1015.81
2018-07-11T02:37:35.759Z,1015.81
2018-07-11T02:37:36.361Z,1015.80
2018-07-11T02:38:29.844Z,1015.80
2018-07-11T02:38:30.412Z,1015.80
2018-07-11T02:38:31.013Z,1015.76
2018-07-11T02:38:31.615Z,1015.81
2018-07-11T02:38:32.213Z,1015.81
2018-07-11T02:38:32.810Z,1015.80
2018-07-11T02:38:33.412Z,1015.79
2018-07-11T02:38:34.029Z,1015.80
2018-07-11T02:39:27.491Z,1015.77
2018-07-11T02:39:28.064Z,1015.78
2018-07-11T02:39:28.664Z,1015.76
2018-07-11T02:39:29.263Z,1015.75
2018-07-11T02:39:29.863Z,1015.75
2018-07-11T02:39:30.463Z,1015.75
2018-07-11T02:39:31.063Z,1015.77
2018-07-11T02:39:31.663Z,1015.75
2018-07-11T02:40:25.143Z,1015.75
2018-07-11T02:40:25.719Z,1015.74
2018-07-11T02:40:26.314Z,1015.74
2018-07-11T02:40:26.915Z,1015.77
2018-07-11T02:40:27.515Z,1015.76
2018-07-11T02:40:28.115Z,1015.73
2018-07-11T02:40:28.714Z,1015.74
2018-07-11T02:40:29.317Z,1015.74
2018-07-11T02:41:22.795Z,1015.71
2018-07-11T02:41:23.368Z,1015.71
2018-07-11T02:41:23.969Z,1015.70
2018-07-11T02:41:24.568Z,1015.74
2018-07-11T02:41:25.169Z,1015.70
2018-07-11T02:41:25.768Z,1015.76
2018-07-11T02:41:26.367Z,1015.71
2018-07-11T02:41:26.968Z,1015.73
2018-07-11T02:42:20.445Z,1015.69
2018-07-11T02:42:21.019Z,1015.67
2018-07-11T02:42:21.618Z,1015.72
2018-07-11T02:42:22.219Z,1015.71
2018-07-11T02:42:22.818Z,1015.69
2018-07-11T02:42:23.418Z,1015.70
2018-07-11T02:42:24.017Z,1015.68
2018-07-11T02:42:24.618Z,1015.71
2018-07-11T02:43:19.123Z,1015.69
2018-07-11T02:43:19.694Z,1015.67
2018-07-11T02:43:20.295Z,1015.70
2018-07-11T02:43:20.894Z,1015.68
2018-07-11T02:43:21.493Z,1015.70
2018-07-11T02:43:22.094Z,1015.71
2018-07-11T02:43:22.694Z,1015.66
2018-07-11T02:43:23.293Z,1015.69
2018-07-11T02:44:16.777Z,1015.71
2018-07-11T02:44:17.345Z,1015.74
2018-07-11T02:44:17.954Z,1015.74
2018-07-11T02:44:18.545Z,1015.70
2018-07-11T02:44:19.146Z,1015.71
2018-07-11T02:44:19.745Z,1015.71
2018-07-11T02:44:20.345Z,1015.75
2018-07-11T02:44:20.947Z,1015.72
2018-07-11T02:45:15.449Z,1015.73
2018-07-11T02:45:16.026Z,1015.74
2018-07-11T02:45:16.620Z,1015.74
2018-07-11T02:45:17.220Z,1015.75
2018-07-11T02:45:17.820Z,1015.74
2018-07-11T02:45:18.420Z,1015.73
2018-07-11T02:45:19.020Z,1015.73
2018-07-11T02:45:19.619Z,1015.75
2018-07-11T02:46:13.101Z,1015.75
2018-07-11T02:46:13.675Z,1015.73
2018-07-11T02:46:14.274Z,1015.72
2018-07-11T02:46:14.875Z,1015.72
2018-07-11T02:46:15.473Z,1015.71
2018-07-11T02:46:16.076Z,1015.74
2018-07-11T02:46:16.676Z,1015.71
2018-07-11T02:46:17.273Z,1015.75
2018-07-11T02:47:10.753Z,1015.76
2018-07-11T02:47:11.325Z,1015.76
2018-07-11T02:47:11.926Z,1015.77
2018-07-11T02:47:12.525Z,1015.77
2018-07-11T02:47:13.127Z,1015.75
2018-07-11T02:47:13.725Z,1015.77
2018-07-11T02:47:14.325Z,1015.75
2018-07-11T02:47:14.925Z,1015.79
2018-07-11T02:48:09.429Z,1015.78
2018-07-11T02:48:10.000Z,1015.74
2018-07-11T02:48:10.601Z,1015.77
2018-07-11T02:48:11.201Z,1015.76
2018-07-11T02:48:11.801Z,1015.78
2018-07-11T02:48:12.403Z,1015.73
2018-07-11T02:48:13.004Z,1015.74
2018-07-11T02:48:13.599Z,1015.76
2018-07-11T02:49:08.104Z,1015.76
2018-07-11T02:49:08.678Z,1015.76
2018-07-11T02:49:09.277Z,1015.76
2018-07-11T02:49:09.876Z,1015.76
2018-07-11T02:49:10.477Z,1015.77
2018-07-11T02:49:11.076Z,1015.74
2018-07-11T02:49:11.675Z,1015.76
2018-07-11T02:49:12.277Z,1015.75
2018-07-11T02:50:06.780Z,1015.75
2018-07-11T02:50:07.353Z,1015.77
2018-07-11T02:50:07.959Z,1015.76
2018-07-11T02:50:08.552Z,1015.77
2018-07-11T02:50:09.151Z,1015.74
2018-07-11T02:50:09.750Z,1015.70
2018-07-11T02:50:10.353Z,1015.75
2018-07-11T02:50:10.950Z,1015.73
2018-07-11T02:51:05.456Z,1015.73
2018-07-11T02:51:06.032Z,1015.71
2018-07-11T02:51:06.625Z,1015.72
2018-07-11T02:51:07.225Z,1015.71
2018-07-11T02:51:07.828Z,1015.74
2018-07-11T02:51:08.426Z,1015.70
2018-07-11T02:51:09.027Z,1015.75
2018-07-11T02:51:09.624Z,1015.73
2018-07-11T02:52:04.131Z,1015.72
2018-07-11T02:52:04.704Z,1015.70
2018-07-11T02:52:05.303Z,1015.69
2018-07-11T02:52:05.903Z,1015.70
2018-07-11T02:52:06.504Z,1015.67
2018-07-11T02:52:07.106Z,1015.71
2018-07-11T02:52:07.703Z,1015.73
2018-07-11T02:52:08.303Z,1015.69
2018-07-11T02:53:01.790Z,1015.73
2018-07-11T02:53:02.355Z,1015.74
2018-07-11T02:53:02.955Z,1015.73
2018-07-11T02:53:03.558Z,1015.72
2018-07-11T02:53:04.154Z,1015.74
2018-07-11T02:53:04.754Z,1015.76
2018-07-11T02:53:05.354Z,1015.72
2018-07-11T02:53:05.953Z,1015.73
2018-07-11T02:53:59.444Z,1015.77
2018-07-11T02:54:00.009Z,1015.76
2018-07-11T02:54:00.608Z,1015.77
2018-07-11T02:54:01.209Z,1015.73
2018-07-11T02:54:01.807Z,1015.77
2018-07-11T02:54:02.407Z,1015.76
2018-07-11T02:54:03.007Z,1015.76
2018-07-11T02:54:03.607Z,1015.74
2018-07-11T02:54:58.109Z,1015.76
2018-07-11T02:54:58.684Z,1015.77
2018-07-11T02:54:59.281Z,1015.76
2018-07-11T02:54:59.883Z,1015.77
2018-07-11T02:55:00.482Z,1015.78
2018-07-11T02:55:01.081Z,1015.78
2018-07-11T02:55:01.683Z,1015.81
2018-07-11T02:55:02.282Z,1015.80
2018-07-11T02:55:55.761Z,1015.75
2018-07-11T02:55:56.334Z,1015.78
2018-07-11T02:55:56.934Z,1015.74
2018-07-11T02:55:57.534Z,1015.76
2018-07-11T02:55:58.134Z,1015.77
2018-07-11T02:55:58.734Z,1015.75
2018-07-11T02:55:59.333Z,1015.75
2018-07-11T02:55:59.935Z,1015.76
2018-07-11T02:56:53.413Z,1015.71
2018-07-11T02:56:53.990Z,1015.73
2018-07-11T02:56:54.595Z,1015.71
2018-07-11T02:56:55.188Z,1015.73
2018-07-11T02:56:55.786Z,1015.73
2018-07-11T02:56:56.387Z,1015.74
2018-07-11T02:56:56.985Z,1015.73
2018-07-11T02:56:57.588Z,1015.71
2018-07-11T02:57:52.089Z,1015.76
2018-07-11T02:57:52.661Z,1015.72
2018-07-11T02:57:53.260Z,1015.73
2018-07-11T02:57:53.861Z,1015.74
2018-07-11T02:57:54.462Z,1015.75
2018-07-11T02:57:55.061Z,1015.72
2018-07-11T02:57:55.661Z,1015.72
2018-07-11T02:57:56.262Z,1015.77
2018-07-11T02:58:49.743Z,1015.69
2018-07-11T02:58:50.313Z,1015.71
2018-07-11T02:58:50.913Z,1015.74
2018-07-11T02:58:51.513Z,1015.74
2018-07-11T02:58:52.112Z,1015.74
2018-07-11T02:58:52.714Z,1015.72
2018-07-11T02:58:53.312Z,1015.74
2018-07-11T02:58:53.913Z,1015.73
2018-07-11T02:59:47.393Z,1015.75
2018-07-11T02:59:47.965Z,1015.75
2018-07-11T02:59:48.565Z,1015.76
2018-07-11T02:59:49.164Z,1015.76
2018-07-11T02:59:49.765Z,1015.74
2018-07-11T02:59:50.365Z,1015.75